createdAt,value
2016-11-26T00:00:09.474Z,1014
2016-11-26T00:01:15.499Z,1014
2016-11-26T00:02:21.524Z,1014
2016-11-26T00:03:27.552Z,1014
2016-11-26T00:04:33.597Z,1014
2016-11-26T00:05:39.616Z,1014
2016-11-26T00:06:44.901Z,1014
2016-11-26T00:07:50.948Z,1014
2016-11-26T00:08:56.971Z,1014
2016-11-26T00:10:02.996Z,1014
2016-11-26T00:11:09.004Z,1014
2016-11-26T00:12:15.026Z,1014
2016-11-26T00:13:21.051Z,1014
2016-11-26T00:14:27.070Z,1014
2016-11-26T00:15:33.097Z,1014
2016-11-26T00:16:39.304Z,1014
2016-11-26T00:17:45.163Z,1014
2016-11-26T00:18:51.185Z,1014
2016-11-26T00:21:04.817Z,1014
2016-11-26T00:22:10.836Z,1014
2016-11-26T00:23:16.853Z,1014
2016-11-26T00:24:22.872Z,1014
2016-11-26T00:25:28.901Z,1014
2016-11-26T00:26:35.000Z,1014
2016-11-26T00:27:41.009Z,1014
2016-11-26T00:28:47.026Z,1014
2016-11-26T00:29:53.053Z,1014
2016-11-26T00:30:59.345Z,1014
2016-11-26T00:32:05.356Z,1014
2016-11-26T00:33:11.455Z,1014
2016-11-26T00:34:17.408Z,1014
2016-11-26T00:35:23.445Z,1014
2016-11-26T00:36:29.460Z,1014
2016-11-26T00:37:35.729Z,1014
2016-11-26T00:38:41.754Z,1014
2016-11-26T00:39:48.055Z,1014
2016-11-26T00:40:54.077Z,1014
2016-11-26T00:42:00.303Z,1014
2016-11-26T00:43:06.325Z,1014
2016-11-26T00:44:12.339Z,1014
2016-11-26T00:45:18.369Z,1014
2016-11-26T00:46:24.395Z,1014
2016-11-26T00:47:30.619Z,1014
2016-11-26T00:48:36.640Z,1014
2016-11-26T00:49:42.665Z,1014
2016-11-26T00:50:48.703Z,1014
2016-11-26T00:51:54.717Z,1014
2016-11-26T00:53:00.750Z,1014
2016-11-26T00:54:06.773Z,1014
2016-11-26T00:55:12.796Z,1014
2016-11-26T00:56:18.820Z,1014
2016-11-26T00:57:24.886Z,1014
2016-11-26T00:58:30.898Z,1013
2016-11-26T00:59:36.921Z,1014
2016-11-26T01:00:42.947Z,1014
2016-11-26T01:01:48.971Z,1013
2016-11-26T01:02:54.996Z,1013
2016-11-26T01:04:01.020Z,1013
2016-11-26T01:05:07.048Z,1013
2016-11-26T01:06:13.069Z,1014
2016-11-26T01:07:19.087Z,1013
2016-11-26T01:08:25.119Z,1014
2016-11-26T01:09:31.335Z,1013
2016-11-26T01:10:37.353Z,1013
2016-11-26T01:11:43.600Z,1013
2016-11-26T01:12:49.611Z,1013
2016-11-26T01:13:55.636Z,1014
2016-11-26T01:15:01.657Z,1013
2016-11-26T01:16:07.678Z,1013
2016-11-26T01:17:13.700Z,1013
2016-11-26T01:18:20.010Z,1013
2016-11-26T01:19:25.914Z,1013
2016-11-26T01:20:32.189Z,1013
2016-11-26T01:21:38.266Z,1013
2016-11-26T01:22:44.282Z,1013
2016-11-26T01:23:50.299Z,1013
2016-11-26T01:24:56.319Z,1013
2016-11-26T01:26:02.345Z,1013
2016-11-26T01:27:08.416Z,1014
2016-11-26T01:28:14.482Z,1014
2016-11-26T01:29:20.499Z,1014
2016-11-26T01:30:26.528Z,1014
2016-11-26T01:31:32.545Z,1014
2016-11-26T01:32:38.567Z,1014
2016-11-26T01:33:44.593Z,1014
2016-11-26T01:34:50.687Z,1014
2016-11-26T01:35:56.637Z,1014
2016-11-26T01:37:02.657Z,1014
2016-11-26T01:38:08.720Z,1014
2016-11-26T01:39:14.727Z,1014
2016-11-26T01:40:20.740Z,1014
2016-11-26T01:41:26.754Z,1014
2016-11-26T01:42:32.787Z,1014
2016-11-26T01:43:38.824Z,1014
2016-11-26T01:44:44.825Z,1014
2016-11-26T01:45:50.841Z,1014
2016-11-26T01:46:56.859Z,1014
2016-11-26T01:48:02.142Z,1014
2016-11-26T01:49:08.154Z,1014
2016-11-26T01:50:14.175Z,1014
2016-11-26T01:51:20.302Z,1014
2016-11-26T01:52:26.788Z,1014
2016-11-26T01:53:32.743Z,1014
2016-11-26T01:54:38.771Z,1014
2016-11-26T01:55:44.843Z,1014
2016-11-26T01:56:50.872Z,1014
2016-11-26T01:57:56.888Z,1014
2016-11-26T01:59:02.907Z,1014
2016-11-26T02:00:08.925Z,1014
2016-11-26T02:01:14.943Z,1014
2016-11-26T02:02:20.965Z,1014
2016-11-26T02:03:26.988Z,1014
2016-11-26T02:04:33.004Z,1014
2016-11-26T02:05:39.027Z,1014
2016-11-26T02:06:45.084Z,1013
2016-11-26T02:07:51.100Z,1013
2016-11-26T02:08:57.122Z,1013
2016-11-26T02:10:03.145Z,1013
2016-11-26T02:11:09.170Z,1014
2016-11-26T02:12:15.184Z,1014
2016-11-26T02:13:21.219Z,1014
2016-11-26T02:14:27.245Z,1014
2016-11-26T02:15:33.266Z,1013
2016-11-26T02:16:39.281Z,1014
2016-11-26T02:17:45.298Z,1014
2016-11-26T02:18:51.320Z,1014
2016-11-26T02:19:57.345Z,1014
2016-11-26T02:21:03.372Z,1014
2016-11-26T02:22:09.389Z,1014
2016-11-26T02:23:15.410Z,1014
2016-11-26T02:24:21.435Z,1014
2016-11-26T02:25:27.460Z,1014
2016-11-26T02:26:33.481Z,1014
2016-11-26T02:27:39.496Z,1014
2016-11-26T02:29:57.888Z,1014
2016-11-26T02:31:03.906Z,1014
2016-11-26T02:32:09.920Z,1014
2016-11-26T02:33:15.950Z,1014
2016-11-26T02:34:21.968Z,1014
2016-11-26T02:35:27.992Z,1014
2016-11-26T02:36:34.006Z,1014
2016-11-26T02:37:40.026Z,1014
2016-11-26T02:38:46.049Z,1014
2016-11-26T02:39:52.088Z,1014
2016-11-26T02:40:58.118Z,1014
2016-11-26T02:42:04.128Z,1014
2016-11-26T02:43:10.149Z,1014
2016-11-26T02:44:16.210Z,1014
2016-11-26T02:45:22.221Z,1014
2016-11-26T02:46:28.246Z,1014
2016-11-26T02:47:34.273Z,1014
2016-11-26T02:48:40.290Z,1014
2016-11-26T02:49:46.306Z,1014
2016-11-26T02:50:52.330Z,1013
2016-11-26T02:51:58.352Z,1014
2016-11-26T02:53:04.371Z,1014
2016-11-26T02:54:10.402Z,1013
2016-11-26T02:55:16.434Z,1014
2016-11-26T02:56:22.449Z,1014
2016-11-26T02:57:28.470Z,1013
2016-11-26T02:58:34.494Z,1014
2016-11-26T02:59:39.773Z,1013
2016-11-26T03:00:45.798Z,1013
2016-11-26T03:01:52.024Z,1013
2016-11-26T03:02:58.054Z,1014
2016-11-26T03:04:04.071Z,1013
2016-11-26T03:05:10.093Z,1013
2016-11-26T03:06:16.110Z,1013
2016-11-26T03:07:22.126Z,1013
2016-11-26T03:08:28.157Z,1013
2016-11-26T03:09:33.432Z,1013
2016-11-26T03:10:39.450Z,1013
2016-11-26T03:11:46.677Z,1013
2016-11-26T03:12:52.712Z,1013
2016-11-26T03:13:58.735Z,1013
2016-11-26T03:15:04.755Z,1013
2016-11-26T03:16:10.776Z,1013
2016-11-26T03:17:16.875Z,1013
2016-11-26T03:18:22.888Z,1013
2016-11-26T03:19:28.908Z,1013
2016-11-26T03:20:34.927Z,1013
2016-11-26T03:21:40.945Z,1013
2016-11-26T03:22:46.965Z,1013
2016-11-26T03:23:52.999Z,1013
2016-11-26T03:24:59.008Z,1013
2016-11-26T03:26:05.029Z,1013
2016-11-26T03:27:11.055Z,1013
2016-11-26T03:28:17.142Z,1013
2016-11-26T03:29:23.102Z,1013
2016-11-26T03:30:29.133Z,1013
2016-11-26T03:31:35.172Z,1013
2016-11-26T03:32:41.183Z,1013
2016-11-26T03:33:47.202Z,1013
2016-11-26T03:34:53.228Z,1013
2016-11-26T03:35:59.301Z,1013
2016-11-26T03:37:05.318Z,1013
2016-11-26T03:38:11.333Z,1013
2016-11-26T03:39:17.357Z,1013
2016-11-26T03:40:23.376Z,1013
2016-11-26T03:41:29.398Z,1013
2016-11-26T03:42:35.432Z,1013
2016-11-26T03:43:41.444Z,1013
2016-11-26T03:44:47.471Z,1013
2016-11-26T03:45:53.490Z,1013
2016-11-26T03:46:59.549Z,1013
2016-11-26T03:48:05.574Z,1013
2016-11-26T03:49:11.594Z,1013
2016-11-26T03:50:17.612Z,1013
2016-11-26T03:51:23.629Z,1013
2016-11-26T03:52:29.659Z,1013
2016-11-26T03:53:35.671Z,1013
2016-11-26T03:54:41.689Z,1013
2016-11-26T03:55:47.707Z,1013
2016-11-26T03:58:04.945Z,1013
2016-11-26T03:59:10.962Z,1013
2016-11-26T04:00:16.985Z,1013
2016-11-26T04:01:23.010Z,1013
2016-11-26T04:02:29.031Z,1013
2016-11-26T04:03:35.055Z,1013
2016-11-26T04:04:41.070Z,1013
2016-11-26T04:05:47.099Z,1013
2016-11-26T04:06:53.115Z,1013
2016-11-26T04:07:59.144Z,1013
2016-11-26T04:09:05.159Z,1013
2016-11-26T04:10:11.183Z,1013
2016-11-26T04:11:17.204Z,1012
2016-11-26T04:12:23.231Z,1013
2016-11-26T04:13:29.246Z,1013
2016-11-26T04:14:35.271Z,1013
2016-11-26T04:15:41.299Z,1013
2016-11-26T04:16:47.311Z,1013
2016-11-26T04:17:53.330Z,1013
2016-11-26T04:18:59.355Z,1013
2016-11-26T04:20:05.377Z,1013
2016-11-26T04:21:11.392Z,1013
2016-11-26T04:22:17.418Z,1012
2016-11-26T04:23:23.445Z,1013
2016-11-26T04:24:29.468Z,1013
2016-11-26T04:26:46.715Z,1013
2016-11-26T04:27:52.728Z,1013
2016-11-26T04:28:58.746Z,1013
2016-11-26T04:30:04.770Z,1013
2016-11-26T04:31:10.791Z,1012
2016-11-26T04:32:16.826Z,1013
2016-11-26T04:33:22.840Z,1013
2016-11-26T04:34:28.854Z,1012
2016-11-26T04:35:34.874Z,1012
2016-11-26T04:36:40.902Z,1012
2016-11-26T04:37:47.120Z,1012
2016-11-26T04:38:53.142Z,1012
2016-11-26T04:39:59.165Z,1012
2016-11-26T04:41:05.194Z,1012
2016-11-26T04:42:11.219Z,1013
2016-11-26T04:43:17.232Z,1012
2016-11-26T04:44:23.260Z,1012
2016-11-26T04:45:29.280Z,1012
2016-11-26T04:46:35.291Z,1012
2016-11-26T04:47:41.312Z,1012
2016-11-26T04:48:47.338Z,1012
2016-11-26T04:49:53.353Z,1012
2016-11-26T04:50:59.370Z,1012
2016-11-26T04:52:05.393Z,1012
2016-11-26T04:53:11.417Z,1012
2016-11-26T04:54:17.441Z,1012
2016-11-26T04:55:23.458Z,1012
2016-11-26T04:56:29.481Z,1012
2016-11-26T04:57:35.505Z,1012
2016-11-26T04:58:41.541Z,1012
2016-11-26T04:59:47.560Z,1012
2016-11-26T05:00:53.582Z,1012
2016-11-26T05:01:59.607Z,1012
2016-11-26T05:03:05.625Z,1012
2016-11-26T05:04:11.640Z,1012
2016-11-26T05:05:17.659Z,1012
2016-11-26T05:06:22.940Z,1012
2016-11-26T05:07:28.958Z,1012
2016-11-26T05:08:34.985Z,1012
2016-11-26T05:09:41.012Z,1012
2016-11-26T05:10:47.038Z,1012
2016-11-26T05:11:53.055Z,1012
2016-11-26T05:12:59.074Z,1012
2016-11-26T05:14:05.102Z,1012
2016-11-26T05:15:11.113Z,1012
2016-11-26T05:16:17.129Z,1012
2016-11-26T05:17:23.153Z,1012
2016-11-26T05:18:29.178Z,1012
2016-11-26T05:19:35.202Z,1012
2016-11-26T05:20:41.220Z,1012
2016-11-26T05:21:47.238Z,1012
2016-11-26T05:22:53.258Z,1012
2016-11-26T05:23:59.283Z,1012
2016-11-26T05:25:05.299Z,1012
2016-11-26T05:26:11.316Z,1012
2016-11-26T05:27:17.345Z,1012
2016-11-26T05:28:22.623Z,1012
2016-11-26T05:29:28.643Z,1012
2016-11-26T05:30:34.664Z,1012
2016-11-26T05:31:40.689Z,1012
2016-11-26T05:32:46.705Z,1012
2016-11-26T05:33:52.731Z,1012
2016-11-26T05:34:58.743Z,1012
2016-11-26T05:36:04.766Z,1012
2016-11-26T05:37:10.787Z,1012
2016-11-26T05:38:16.811Z,1012
2016-11-26T05:39:22.837Z,1012
2016-11-26T05:40:28.855Z,1012
2016-11-26T05:41:34.884Z,1012
2016-11-26T05:42:40.905Z,1012
2016-11-26T05:43:46.924Z,1012
2016-11-26T05:44:52.959Z,1012
2016-11-26T05:45:58.974Z,1012
2016-11-26T05:47:04.987Z,1012
2016-11-26T05:48:11.006Z,1012
2016-11-26T05:49:17.035Z,1012
2016-11-26T05:50:23.046Z,1012
2016-11-26T05:51:29.065Z,1012
2016-11-26T05:52:35.081Z,1012
2016-11-26T05:53:41.116Z,1012
2016-11-26T05:54:47.131Z,1012
2016-11-26T05:55:53.150Z,1012
2016-11-26T05:56:59.172Z,1012
2016-11-26T05:58:05.202Z,1012
2016-11-26T05:59:11.216Z,1012
2016-11-26T06:00:17.242Z,1012
2016-11-26T06:01:23.259Z,1012
2016-11-26T06:02:29.276Z,1012
2016-11-26T06:03:35.301Z,1012
2016-11-26T06:04:41.321Z,1012
2016-11-26T06:05:47.340Z,1012
2016-11-26T06:06:53.359Z,1012
2016-11-26T06:07:59.376Z,1012
2016-11-26T06:09:05.395Z,1012
2016-11-26T06:10:11.412Z,1012
2016-11-26T06:11:17.436Z,1012
2016-11-26T06:12:23.459Z,1012
2016-11-26T06:13:29.479Z,1012
2016-11-26T06:14:35.499Z,1012
2016-11-26T06:15:41.523Z,1012
2016-11-26T06:16:47.748Z,1012
2016-11-26T06:17:53.759Z,1012
2016-11-26T06:18:59.785Z,1012
2016-11-26T06:20:05.812Z,1012
2016-11-26T06:21:11.835Z,1012
2016-11-26T06:22:17.849Z,1012
2016-11-26T06:23:23.862Z,1012
2016-11-26T06:24:29.884Z,1012
2016-11-26T06:25:35.912Z,1012
2016-11-26T06:26:41.936Z,1012
2016-11-26T06:27:48.154Z,1012
2016-11-26T06:28:54.221Z,1012
2016-11-26T06:30:00.242Z,1012
2016-11-26T06:31:06.261Z,1012
2016-11-26T06:32:12.280Z,1012
2016-11-26T06:33:18.301Z,1012
2016-11-26T06:34:24.320Z,1012
2016-11-26T06:35:30.337Z,1012
2016-11-26T06:36:36.360Z,1012
2016-11-26T06:37:42.386Z,1012
2016-11-26T06:38:48.412Z,1012
2016-11-26T06:39:54.431Z,1012
2016-11-26T06:41:00.458Z,1012
2016-11-26T06:42:06.476Z,1012
2016-11-26T06:43:12.495Z,1012
2016-11-26T06:44:18.510Z,1012
2016-11-26T06:45:24.533Z,1012
2016-11-26T06:46:30.559Z,1012
2016-11-26T06:47:36.579Z,1012
2016-11-26T06:48:42.594Z,1012
2016-11-26T06:49:48.611Z,1012
2016-11-26T06:50:54.629Z,1012
2016-11-26T06:52:00.854Z,1012
2016-11-26T06:53:06.877Z,1012
2016-11-26T06:54:12.898Z,1012
2016-11-26T06:55:18.921Z,1012
2016-11-26T06:57:36.198Z,1012
2016-11-26T06:58:42.215Z,1012
2016-11-26T06:59:48.229Z,1012
2016-11-26T07:00:54.248Z,1012
2016-11-26T07:02:00.268Z,1012
2016-11-26T07:03:06.297Z,1012
2016-11-26T07:04:12.310Z,1012
2016-11-26T07:05:18.326Z,1012
2016-11-26T07:06:24.351Z,1011
2016-11-26T07:07:30.382Z,1012
2016-11-26T07:08:36.397Z,1012
2016-11-26T07:09:42.421Z,1012
2016-11-26T07:10:48.445Z,1012
2016-11-26T07:11:54.474Z,1012
2016-11-26T07:13:00.494Z,1012
2016-11-26T07:14:06.518Z,1012
2016-11-26T07:15:12.542Z,1012
2016-11-26T07:16:18.557Z,1012
2016-11-26T07:17:24.578Z,1012
2016-11-26T07:18:30.601Z,1012
2016-11-26T07:19:36.625Z,1012
2016-11-26T07:20:42.642Z,1012
2016-11-26T07:21:48.663Z,1012
2016-11-26T07:22:54.691Z,1012
2016-11-26T07:24:00.715Z,1012
2016-11-26T07:25:06.740Z,1012
2016-11-26T07:26:12.763Z,1012
2016-11-26T07:27:18.819Z,1012
2016-11-26T07:28:24.808Z,1012
2016-11-26T07:29:30.832Z,1012
2016-11-26T07:30:36.853Z,1012
2016-11-26T07:31:42.877Z,1012
2016-11-26T07:32:48.899Z,1012
2016-11-26T07:33:54.918Z,1012
2016-11-26T07:35:00.933Z,1012
2016-11-26T07:36:06.955Z,1012
2016-11-26T07:37:12.977Z,1012
2016-11-26T07:38:18.994Z,1012
2016-11-26T07:39:25.017Z,1012
2016-11-26T07:40:31.042Z,1012
2016-11-26T07:41:37.070Z,1012
2016-11-26T07:42:43.088Z,1012
2016-11-26T07:43:49.108Z,1012
2016-11-26T07:44:55.139Z,1012
2016-11-26T07:46:01.153Z,1012
2016-11-26T07:47:07.177Z,1012
2016-11-26T07:48:13.203Z,1012
2016-11-26T07:49:19.245Z,1012
2016-11-26T07:50:25.259Z,1012
2016-11-26T07:51:31.284Z,1012
2016-11-26T07:52:37.307Z,1012
2016-11-26T07:53:43.329Z,1012
2016-11-26T07:54:49.351Z,1011
2016-11-26T07:55:55.370Z,1011
2016-11-26T07:57:01.391Z,1011
2016-11-26T07:58:07.420Z,1012
2016-11-26T07:59:13.449Z,1011
2016-11-26T08:00:19.465Z,1011
2016-11-26T08:01:25.484Z,1012
2016-11-26T08:02:31.509Z,1012
2016-11-26T08:03:37.531Z,1011
2016-11-26T08:04:43.553Z,1011
2016-11-26T08:05:49.573Z,1012
2016-11-26T08:06:55.593Z,1011
2016-11-26T08:08:01.619Z,1012
2016-11-26T08:09:07.643Z,1011
2016-11-26T08:10:13.665Z,1011
2016-11-26T08:11:18.939Z,1012
2016-11-26T08:12:24.962Z,1011
2016-11-26T08:13:30.982Z,1011
2016-11-26T08:14:36.996Z,1011
2016-11-26T08:15:43.023Z,1011
2016-11-26T08:16:49.046Z,1011
2016-11-26T08:17:55.063Z,1011
2016-11-26T08:19:01.080Z,1011
2016-11-26T08:20:07.111Z,1011
2016-11-26T08:21:13.122Z,1011
2016-11-26T08:22:19.141Z,1011
2016-11-26T08:23:25.160Z,1011
2016-11-26T08:24:31.189Z,1011
2016-11-26T08:25:37.199Z,1011
2016-11-26T08:26:43.229Z,1011
2016-11-26T08:27:49.243Z,1011
2016-11-26T08:28:55.269Z,1011
2016-11-26T08:30:00.535Z,1011
2016-11-26T08:31:06.562Z,1011
2016-11-26T08:32:12.581Z,1011
2016-11-26T08:33:18.601Z,1011
2016-11-26T08:34:24.620Z,1011
2016-11-26T08:35:30.639Z,1011
2016-11-26T08:36:36.655Z,1011
2016-11-26T08:37:42.684Z,1011
2016-11-26T08:38:48.701Z,1011
2016-11-26T08:39:54.724Z,1011
2016-11-26T08:41:00.743Z,1011
2016-11-26T08:42:06.770Z,1011
2016-11-26T08:43:12.056Z,1011
2016-11-26T08:44:18.064Z,1011
2016-11-26T08:45:24.084Z,1011
2016-11-26T08:46:30.106Z,1011
2016-11-26T08:47:36.131Z,1011
2016-11-26T08:49:49.758Z,1011
2016-11-26T08:50:55.777Z,1011
2016-11-26T08:52:01.802Z,1011
2016-11-26T08:53:07.825Z,1011
2016-11-26T08:54:13.846Z,1011
2016-11-26T08:55:19.876Z,1011
2016-11-26T08:56:25.885Z,1011
2016-11-26T08:57:31.908Z,1011
2016-11-26T08:58:37.931Z,1011
2016-11-26T08:59:43.962Z,1011
2016-11-26T09:00:49.979Z,1011
2016-11-26T09:01:55.999Z,1011
2016-11-26T09:03:02.024Z,1011
2016-11-26T09:04:08.057Z,1011
2016-11-26T09:05:14.068Z,1011
2016-11-26T09:06:20.089Z,1011
2016-11-26T09:07:26.119Z,1011
2016-11-26T09:08:32.135Z,1011
2016-11-26T09:09:38.156Z,1011
2016-11-26T09:10:44.180Z,1011
2016-11-26T09:11:50.201Z,1011
2016-11-26T09:12:56.221Z,1011
2016-11-26T09:14:02.251Z,1011
2016-11-26T09:15:08.271Z,1011
2016-11-26T09:16:14.295Z,1011
2016-11-26T09:17:20.318Z,1011
2016-11-26T09:18:26.342Z,1011
2016-11-26T09:19:32.367Z,1011
2016-11-26T09:20:38.394Z,1011
2016-11-26T09:21:44.618Z,1011
2016-11-26T09:22:50.638Z,1011
2016-11-26T09:23:56.662Z,1011
2016-11-26T09:25:02.684Z,1011
2016-11-26T09:26:08.697Z,1011
2016-11-26T09:27:14.712Z,1011
2016-11-26T09:28:20.738Z,1011
2016-11-26T09:29:26.765Z,1011
2016-11-26T09:30:32.793Z,1011
2016-11-26T09:31:38.813Z,1011
2016-11-26T09:32:44.840Z,1011
2016-11-26T09:33:50.866Z,1011
2016-11-26T09:34:56.884Z,1011
2016-11-26T09:36:02.903Z,1011
2016-11-26T09:37:08.928Z,1011
2016-11-26T09:38:14.943Z,1011
2016-11-26T09:39:20.965Z,1011
2016-11-26T09:40:26.984Z,1011
2016-11-26T09:41:33.002Z,1011
2016-11-26T09:42:39.029Z,1011
2016-11-26T09:43:45.060Z,1011
2016-11-26T09:44:51.082Z,1011
2016-11-26T09:45:57.101Z,1011
2016-11-26T09:47:03.124Z,1011
2016-11-26T09:48:09.138Z,1011
2016-11-26T09:49:15.155Z,1011
2016-11-26T09:50:21.185Z,1011
2016-11-26T09:51:27.216Z,1011
2016-11-26T09:52:33.234Z,1011
2016-11-26T09:53:39.252Z,1010
2016-11-26T09:54:45.282Z,1011
2016-11-26T09:55:51.298Z,1011
2016-11-26T09:58:05.994Z,1010
2016-11-26T09:59:11.994Z,1011
2016-11-26T10:00:17.993Z,1011
2016-11-26T10:01:23.996Z,1010
2016-11-26T10:02:29.992Z,1010
2016-11-26T10:03:35.988Z,1010
2016-11-26T10:04:41.988Z,1010
2016-11-26T10:05:47.989Z,1010
2016-11-26T10:08:07.456Z,1010
2016-11-26T10:09:13.455Z,1010
2016-11-26T10:10:19.454Z,1010
2016-11-26T10:11:25.462Z,1010
2016-11-26T10:12:31.458Z,1010
2016-11-26T10:13:37.458Z,1010
2016-11-26T10:14:43.455Z,1010
2016-11-26T10:15:49.458Z,1010
2016-11-26T10:16:55.454Z,1010
2016-11-26T10:18:01.453Z,1010
2016-11-26T10:19:07.448Z,1010
2016-11-26T10:20:13.451Z,1010
2016-11-26T10:21:19.445Z,1010
2016-11-26T10:22:25.444Z,1010
2016-11-26T10:23:31.441Z,1010
2016-11-26T10:24:37.442Z,1010
2016-11-26T10:25:43.438Z,1010
2016-11-26T10:26:49.461Z,1010
2016-11-26T10:27:55.446Z,1010
2016-11-26T10:29:01.447Z,1010
2016-11-26T10:30:07.444Z,1010
2016-11-26T10:31:13.440Z,1010
2016-11-26T10:32:19.437Z,1010
2016-11-26T10:33:25.432Z,1010
2016-11-26T10:34:31.436Z,1010
2016-11-26T10:35:37.437Z,1010
2016-11-26T10:36:43.432Z,1010
2016-11-26T10:37:49.438Z,1010
2016-11-26T10:38:55.434Z,1010
2016-11-26T10:40:01.438Z,1010
2016-11-26T10:41:07.430Z,1010
2016-11-26T10:42:13.437Z,1010
2016-11-26T10:43:19.429Z,1010
2016-11-26T10:44:25.433Z,1010
2016-11-26T10:45:31.436Z,1010
2016-11-26T10:46:37.447Z,1010
2016-11-26T10:47:43.435Z,1010
2016-11-26T10:48:49.439Z,1010
2016-11-26T10:49:55.440Z,1010
2016-11-26T10:51:01.437Z,1010
2016-11-26T10:52:07.430Z,1010
2016-11-26T10:53:13.426Z,1010
2016-11-26T10:54:19.430Z,1010
2016-11-26T10:55:25.424Z,1010
2016-11-26T10:56:31.430Z,1010
2016-11-26T10:57:37.429Z,1010
2016-11-26T10:58:43.424Z,1010
2016-11-26T10:59:49.422Z,1010
2016-11-26T11:00:55.416Z,1010
2016-11-26T11:02:01.424Z,1010
2016-11-26T11:03:07.424Z,1010
2016-11-26T11:04:13.425Z,1010
2016-11-26T11:05:19.424Z,1010
2016-11-26T11:06:25.429Z,1010
2016-11-26T11:07:31.424Z,1010
2016-11-26T11:08:37.421Z,1010
2016-11-26T11:10:55.783Z,1010
2016-11-26T11:12:01.783Z,1009
2016-11-26T11:13:07.784Z,1009
2016-11-26T11:14:13.791Z,1010
2016-11-26T11:15:19.787Z,1009
2016-11-26T11:16:25.783Z,1009
2016-11-26T11:17:31.787Z,1009
2016-11-26T11:18:37.789Z,1009
2016-11-26T11:19:43.785Z,1009
2016-11-26T11:20:49.780Z,1009
2016-11-26T11:21:55.775Z,1009
2016-11-26T11:23:01.777Z,1009
2016-11-26T11:24:07.772Z,1009
2016-11-26T11:25:13.769Z,1009
2016-11-26T11:26:19.765Z,1009
2016-11-26T11:27:25.765Z,1009
2016-11-26T11:28:31.761Z,1009
2016-11-26T11:29:37.765Z,1009
2016-11-26T11:30:43.769Z,1009
2016-11-26T11:31:49.769Z,1009
2016-11-26T11:32:55.765Z,1009
2016-11-26T11:34:01.763Z,1009
2016-11-26T11:35:07.761Z,1009
2016-11-26T11:36:13.759Z,1009
2016-11-26T11:37:19.765Z,1009
2016-11-26T11:38:25.761Z,1009
2016-11-26T11:39:31.757Z,1009
2016-11-26T11:40:37.763Z,1009
2016-11-26T11:41:43.763Z,1009
2016-11-26T11:42:49.762Z,1009
2016-11-26T11:43:55.758Z,1009
2016-11-26T11:45:01.765Z,1009
2016-11-26T11:46:07.758Z,1009
2016-11-26T11:47:13.763Z,1009
2016-11-26T11:48:19.765Z,1009
2016-11-26T11:49:25.771Z,1009
2016-11-26T11:50:31.764Z,1009
2016-11-26T11:51:37.769Z,1009
2016-11-26T11:52:43.772Z,1009
2016-11-26T11:53:49.773Z,1009
2016-11-26T11:54:55.762Z,1009
2016-11-26T11:56:01.761Z,1009
2016-11-26T11:57:07.972Z,1008
2016-11-26T11:58:13.967Z,1009
2016-11-26T11:59:19.978Z,1008
2016-11-26T12:00:25.972Z,1008
2016-11-26T12:01:31.973Z,1008
2016-11-26T12:02:37.967Z,1008
2016-11-26T12:03:43.962Z,1008
2016-11-26T12:04:49.969Z,1009
2016-11-26T12:05:55.969Z,1008
2016-11-26T12:07:01.967Z,1008
2016-11-26T12:08:07.965Z,1008
2016-11-26T12:09:13.969Z,1008
2016-11-26T12:10:19.962Z,1008
2016-11-26T12:11:25.964Z,1008
2016-11-26T12:12:31.959Z,1008
2016-11-26T12:13:37.971Z,1008
2016-11-26T12:14:43.964Z,1008
2016-11-26T12:15:49.963Z,1008
2016-11-26T12:16:55.970Z,1008
2016-11-26T12:18:01.981Z,1008
2016-11-26T12:19:07.968Z,1008
2016-11-26T12:20:13.971Z,1008
2016-11-26T12:21:19.965Z,1008
2016-11-26T12:22:25.964Z,1008
2016-11-26T12:23:32.170Z,1008
2016-11-26T12:24:38.169Z,1008
2016-11-26T12:25:44.164Z,1008
2016-11-26T12:26:50.165Z,1008
2016-11-26T12:27:56.163Z,1008
2016-11-26T12:29:02.162Z,1008
2016-11-26T12:30:08.162Z,1008
2016-11-26T12:31:14.163Z,1008
2016-11-26T12:32:20.160Z,1008
2016-11-26T12:33:26.159Z,1008
2016-11-26T12:34:32.160Z,1008
2016-11-26T12:35:38.164Z,1008
2016-11-26T12:36:44.159Z,1008
2016-11-26T12:37:50.163Z,1008
2016-11-26T12:38:56.169Z,1008
2016-11-26T12:40:02.170Z,1008
2016-11-26T12:41:08.158Z,1008
2016-11-26T12:42:14.161Z,1008
2016-11-26T12:43:20.168Z,1008
2016-11-26T12:44:26.170Z,1008
2016-11-26T12:45:32.166Z,1008
2016-11-26T12:46:38.170Z,1008
2016-11-26T12:47:44.175Z,1008
2016-11-26T12:48:50.180Z,1008
2016-11-26T12:49:56.177Z,1008
2016-11-26T12:51:02.177Z,1008
2016-11-26T12:52:08.179Z,1008
2016-11-26T12:53:14.181Z,1008
2016-11-26T12:54:20.180Z,1008
2016-11-26T12:55:26.179Z,1008
2016-11-26T12:56:32.178Z,1008
2016-11-26T12:57:38.182Z,1008
2016-11-26T12:58:44.183Z,1008
2016-11-26T12:59:50.189Z,1008
2016-11-26T13:00:56.186Z,1008
2016-11-26T13:02:02.190Z,1007
2016-11-26T13:03:08.190Z,1008
2016-11-26T13:04:14.181Z,1007
2016-11-26T13:05:20.180Z,1007
2016-11-26T13:06:26.185Z,1007
2016-11-26T13:07:32.188Z,1007
2016-11-26T13:08:38.192Z,1007
2016-11-26T13:09:44.185Z,1007
2016-11-26T13:10:50.183Z,1007
2016-11-26T13:11:56.184Z,1007
2016-11-26T13:13:02.185Z,1007
2016-11-26T13:14:08.180Z,1007
2016-11-26T13:15:14.182Z,1007
2016-11-26T13:16:20.180Z,1007
2016-11-26T13:17:26.180Z,1007
2016-11-26T13:18:32.186Z,1007
2016-11-26T13:19:38.183Z,1007
2016-11-26T13:20:44.187Z,1007
2016-11-26T13:21:50.186Z,1007
2016-11-26T13:22:56.182Z,1007
2016-11-26T13:24:02.184Z,1007
2016-11-26T13:25:08.187Z,1007
2016-11-26T13:26:14.182Z,1007
2016-11-26T13:27:20.191Z,1007
2016-11-26T13:28:26.194Z,1007
2016-11-26T13:29:32.194Z,1007
2016-11-26T13:30:38.183Z,1007
2016-11-26T13:31:44.178Z,1007
2016-11-26T13:32:50.180Z,1007
2016-11-26T13:33:56.182Z,1007
2016-11-26T13:35:02.183Z,1007
2016-11-26T13:36:08.181Z,1007
2016-11-26T13:37:14.181Z,1007
2016-11-26T13:38:20.188Z,1007
2016-11-26T13:39:26.185Z,1007
2016-11-26T13:40:32.188Z,1007
2016-11-26T13:41:37.449Z,1007
2016-11-26T13:42:43.444Z,1007
2016-11-26T13:43:49.445Z,1007
2016-11-26T13:44:55.447Z,1007
2016-11-26T13:46:01.454Z,1007
2016-11-26T13:47:07.445Z,1007
2016-11-26T13:48:13.445Z,1007
2016-11-26T13:49:19.447Z,1007
2016-11-26T13:50:25.438Z,1007
2016-11-26T13:51:31.436Z,1007
2016-11-26T13:52:37.438Z,1007
2016-11-26T13:53:43.442Z,1007
2016-11-26T13:54:49.440Z,1007
2016-11-26T13:55:55.433Z,1007
2016-11-26T13:57:01.427Z,1007
2016-11-26T13:58:07.426Z,1007
2016-11-26T13:59:13.420Z,1007
2016-11-26T14:00:19.418Z,1007
2016-11-26T14:01:25.414Z,1007
2016-11-26T14:02:31.417Z,1007
2016-11-26T14:03:37.410Z,1007
2016-11-26T14:04:43.423Z,1007
2016-11-26T14:05:49.423Z,1007
2016-11-26T14:06:55.427Z,1007
2016-11-26T14:08:01.430Z,1007
2016-11-26T14:09:07.419Z,1007
2016-11-26T14:10:13.427Z,1007
2016-11-26T14:11:19.429Z,1007
2016-11-26T14:12:25.423Z,1007
2016-11-26T14:13:31.425Z,1007
2016-11-26T14:14:37.427Z,1007
2016-11-26T14:15:43.433Z,1007
2016-11-26T14:16:49.426Z,1007
2016-11-26T14:17:55.424Z,1007
2016-11-26T14:19:01.425Z,1007
2016-11-26T14:20:07.424Z,1007
2016-11-26T14:21:13.425Z,1007
2016-11-26T14:22:19.418Z,1007
2016-11-26T14:23:25.418Z,1006
2016-11-26T14:24:31.416Z,1006
2016-11-26T14:25:37.419Z,1006
2016-11-26T14:26:43.422Z,1006
2016-11-26T14:27:49.424Z,1006
2016-11-26T14:28:55.423Z,1006
2016-11-26T14:30:01.420Z,1006
2016-11-26T14:31:07.427Z,1006
2016-11-26T14:32:13.425Z,1007
2016-11-26T14:33:19.427Z,1007
2016-11-26T14:34:25.433Z,1007
2016-11-26T14:35:31.429Z,1007
2016-11-26T14:36:37.629Z,1006
2016-11-26T14:37:43.625Z,1007
2016-11-26T14:38:49.626Z,1007
2016-11-26T14:39:55.632Z,1007
2016-11-26T14:41:01.632Z,1006
2016-11-26T14:42:07.623Z,1006
2016-11-26T14:43:13.636Z,1006
2016-11-26T14:44:19.630Z,1006
2016-11-26T14:45:25.641Z,1006
2016-11-26T14:46:31.632Z,1006
2016-11-26T14:47:37.633Z,1006
2016-11-26T14:48:43.642Z,1006